Time;durP1;ratioP1;P1;durP2;ratioP2;P2;SDS_P1;SDS_P2;PMS_P1;PMS_P2;Temp;Humidity;BMP_temperature;BMP_pressure;BME280_temperature;BME280_humidity;BME280_pressure;Samples;Min_cycle;Max_cycle;Signal;HPM_P1;HPM_P2
2022/12/02 00:00:18;;;;;;;3.70;2.13;;;;;;;3.23;83.87;101513.22;4987010;28;20471;-88
2022/12/02 00:02:44;;;;;;;3.65;2.00;;;;;;;3.11;83.49;101499.75;4974630;28;20319;-86
2022/12/02 00:05:20;;;;;;;3.58;2.30;;;;;;;3.30;83.48;101531.38;4971475;28;20443;-86
2022/12/02 00:07:46;;;;;;;4.32;2.10;;;;;;;3.20;83.11;101518.72;4970560;28;20038;-86
2022/12/02 00:10:27;;;;;;;4.32;2.47;;;;;;;2.73;83.87;101457.69;4971562;28;20089;-86
2022/12/02 00:12:52;;;;;;;5.93;2.22;;;;;;;2.88;83.54;101471.88;4975975;28;20426;-85
2022/12/02 00:15:41;;;;;;;4.15;2.60;;;;;;;3.00;83.38;101496.88;4993874;28;20053;-87
2022/12/02 00:18:12;;;;;;;4.82;2.40;;;;;;;2.89;84.14;101483.38;4960536;28;20487;-86
2022/12/02 00:20:38;;;;;;;4.57;2.72;;;;;;;2.97;83.63;101494.38;4974276;28;20035;-86
2022/12/02 00:23:04;;;;;;;4.18;2.55;;;;;;;2.79;83.54;101450.34;4977755;28;20042;-84
2022/12/02 00:25:30;;;;;;;4.55;2.80;;;;;;;3.11;83.64;101499.75;4989331;28;20062;-87
2022/12/02 00:27:56;;;;;;;4.40;2.78;;;;;;;2.91;83.64;101458.41;4990700;28;20053;-86
2022/12/02 00:30:23;;;;;;;5.38;2.80;;;;;;;2.95;83.65;101462.59;4991035;28;20034;-87
2022/12/02 00:32:48;;;;;;;4.13;2.38;;;;;;;2.92;83.46;101468.09;4973130;28;20510;-87
2022/12/02 00:35:15;;;;;;;6.03;2.65;;;;;;;3.29;83.11;101513.69;4973909;28;20101;-87
2022/12/02 00:37:41;;;;;;;5.10;2.53;;;;;;;3.11;83.13;101502.41;4991249;28;20121;-86
2022/12/02 00:40:10;;;;;;;4.57;2.92;;;;;;;3.11;82.57;101477.59;4973921;28;20473;-86
2022/12/02 00:42:38;;;;;;;6.25;2.47;;;;;;;3.00;83.11;101486.25;5001676;28;20034;-89
2022/12/02 00:47:48;;;;;;;5.63;2.80;;;;;;;3.10;83.23;101513.97;4982322;28;20110;-86
2022/12/02 00:50:16;;;;;;;5.87;2.80;;;;;;;3.13;82.74;101528.84;4965980;28;20329;-86
2022/12/02 00:52:41;;;;;;;5.05;2.85;;;;;;;3.13;83.27;101518.22;4971009;28;20375;-85
2022/12/02 00:55:07;;;;;;;5.25;3.08;;;;;;;3.04;83.23;101508.16;4987514;28;20061;-85
2022/12/02 00:57:33;;;;;;;4.22;2.35;;;;;;;3.22;82.42;101515.03;4972225;28;20124;-85
2022/12/02 00:59:59;;;;;;;5.32;2.85;;;;;;;3.00;83.09;101517.25;4963270;28;20137;-87
2022/12/02 01:02:25;;;;;;;5.60;2.95;;;;;;;3.13;82.94;101518.22;4989369;28;20128;-86
2022/12/02 01:04:51;;;;;;;5.22;2.90;;;;;;;3.00;83.44;101512.81;4972720;28;20088;-86
2022/12/02 01:07:16;;;;;;;4.00;2.53;;;;;;;2.96;83.24;101496.19;4964883;28;20047;-87
2022/12/02 01:09:42;;;;;;;4.30;2.43;;;;;;;3.09;82.67;101512.25;4990038;28;20292;-85
2022/12/02 01:12:08;;;;;;;5.57;2.85;;;;;;;2.98;82.95;101504.06;4995677;28;20285;-85
2022/12/02 01:14:34;;;;;;;4.32;2.40;;;;;;;2.91;83.58;101500.06;4989677;28;20054;-86
2022/12/02 01:16:59;;;;;;;4.05;2.70;;;;;;;3.11;83.97;101526.31;4973512;28;20160;-85
2022/12/02 01:19:42;;;;;;;5.97;2.78;;;;;;;3.12;83.71;101522.69;4973932;28;20061;-86
2022/12/02 01:22:11;;;;;;;4.40;2.60;;;;;;;3.01;83.27;101493.25;5000838;28;20061;-85
2022/12/02 01:24:36;;;;;;;4.22;2.42;;;;;;;3.26;82.63;101527.19;5008209;28;20053;-87
2022/12/02 01:27:03;;;;;;;4.30;2.40;;;;;;;3.16;82.59;101502.97;4980879;28;20035;-85
2022/12/02 01:29:29;;;;;;;5.05;2.80;;;;;;;3.21;82.34;101515.97;4989748;28;20077;-85
2022/12/02 01:31:56;;;;;;;6.05;2.70;;;;;;;3.22;83.09;101519.50;4986402;28;20061;-86
2022/12/02 01:34:28;;;;;;;4.88;2.60;;;;;;;3.23;82.47;101513.22;4983045;28;20069;-85
2022/12/02 01:36:56;;;;;;;5.20;2.72;;;;;;;3.20;82.16;101511.59;4957781;28;20120;-85
2022/12/02 01:39:22;;;;;;;5.40;2.63;;;;;;;3.04;82.48;101486.91;4966733;28;20038;-86
2022/12/02 01:41:49;;;;;;;4.72;2.80;;;;;;;3.28;82.47;101524.44;4971217;28;20042;-87
2022/12/02 01:44:17;;;;;;;5.25;2.65;;;;;;;3.20;82.61;101518.72;4990269;28;20042;-85
2022/12/02 01:46:47;;;;;;;5.38;2.50;;;;;;;2.93;82.51;101480.44;4973618;28;20031;-85
2022/12/02 01:49:13;;;;;;;4.93;2.80;;;;;;;3.08;82.49;101507.03;4968389;28;20046;-86
2022/12/02 01:51:38;;;;;;;4.38;2.47;;;;;;;3.21;82.33;101509.78;4941662;28;20105;-86
2022/12/02 01:54:10;;;;;;;5.00;2.42;;;;;;;3.01;82.37;101497.72;4973463;28;20114;-87
2022/12/02 01:56:36;;;;;;;5.47;2.83;;;;;;;3.27;82.40;101528.03;4970697;28;20501;-85
2022/12/02 01:59:03;;;;;;;6.15;2.70;;;;;;;3.19;81.87;101517.03;4958268;28;20112;-85
2022/12/02 02:01:30;;;;;;;5.00;2.60;;;;;;;2.98;82.06;101481.97;4972347;28;20043;-85
2022/12/02 02:03:57;;;;;;;5.20;2.58;;;;;;;3.05;82.09;101497.44;4990832;28;20542;-84
2022/12/02 02:06:24;;;;;;;5.18;2.78;;;;;;;3.16;82.01;101518.91;4958241;28;20054;-85
2022/12/02 02:09:16;;;;;;;5.28;2.90;;;;;;;3.19;82.26;101527.66;5002709;28;20073;-85
2022/12/02 02:11:41;;;;;;;5.43;2.75;;;;;;;3.17;82.49;101523.28;5008756;28;20459;-85
2022/12/02 02:14:10;;;;;;;6.13;3.00;;;;;;;2.90;83.01;101514.28;4985283;28;20054;-86
2022/12/02 02:17:28;;;;;;;4.60;2.78;;;;;;;3.02;82.75;101529.50;4999667;28;20050;-89
2022/12/02 02:19:54;;;;;;;5.95;2.90;;;;;;;2.91;82.56;101502.72;4986920;28;20039;-88
2022/12/02 02:22:34;;;;;;;4.80;2.80;;;;;;;2.65;83.09;101473.25;4970548;28;20091;-86
2022/12/02 02:25:04;;;;;;;4.85;2.78;;;;;;;2.78;82.73;101494.59;4997998;28;20041;-86
2022/12/02 02:27:29;;;;;;;5.10;2.80;;;;;;;2.58;83.30;101468.41;4998599;28;20042;-87
2022/12/02 02:29:56;;;;;;;4.50;2.60;;;;;;;2.91;83.27;101529.28;4995605;28;20066;-87
2022/12/02 02:32:21;;;;;;;6.93;3.17;;;;;;;2.92;83.35;101530.97;5007277;28;20057;-85
2022/12/02 02:35:09;;;;;;;5.15;2.90;;;;;;;2.98;83.35;101530.63;4985797;28;20452;-85
2022/12/02 02:37:35;;;;;;;4.88;2.72;;;;;;;2.75;83.33;101503.63;4990359;28;20038;-85
2022/12/02 02:40:00;;;;;;;;;;;;;;;2.95;83.67;101534.34;4987093;28;20108;-85
2022/12/02 02:42:27;;;;;;;6.70;2.88;;;;;;;3.01;83.81;101534.91;4996932;28;19910;-86
2022/12/02 02:44:53;;;;;;;5.22;2.60;;;;;;;2.95;82.83;101529.00;5010231;28;20141;-85
2022/12/02 02:47:22;;;;;;;4.57;2.88;;;;;;;3.00;82.61;101539.38;4984520;28;20170;-86
2022/12/02 02:49:48;;;;;;;5.47;3.00;;;;;;;3.10;82.55;101540.53;4984900;28;20069;-86
2022/12/02 02:52:15;;;;;;;4.30;2.55;;;;;;;2.91;82.76;101523.97;5009639;28;20041;-84
2022/12/02 02:54:53;;;;;;;4.90;2.88;;;;;;;2.83;82.98;101504.97;4948062;28;20129;-86
2022/12/02 02:57:23;;;;;;;4.32;2.70;;;;;;;2.98;83.12;101541.25;4961240;28;20054;-86
2022/12/02 02:59:50;;;;;;;4.82;3.10;;;;;;;2.89;82.83;101521.41;4985948;28;20050;-85
2022/12/02 03:02:17;;;;;;;;;;;;;;;2.96;82.97;101537.84;4976647;28;20129;-85
2022/12/02 03:04:55;;;;;;;5.47;2.83;;;;;;;2.79;83.29;101522.91;5005761;28;20370;-87
2022/12/02 03:10:49;;;;;;;6.43;2.85;;;;;;;2.95;82.94;101538.78;5016327;28;20037;-87
2022/12/02 03:13:16;;;;;;;5.20;2.88;;;;;;;3.01;82.64;101530.44;5021114;28;20099;-86
2022/12/02 03:15:41;;;;;;;5.25;2.97;;;;;;;3.03;82.52;101523.25;5013297;28;20044;-85
2022/12/02 03:18:16;;;;;;;5.60;2.80;;;;;;;2.97;82.16;101528.91;4950939;28;20055;-88
2022/12/02 03:20:43;;;;;;;5.35;3.08;;;;;;;2.86;82.46;101510.13;4957254;28;20121;-86
2022/12/02 03:23:08;;;;;;;5.68;2.85;;;;;;;2.70;82.27;101499.53;5011211;28;20112;-87
2022/12/02 03:25:34;;;;;;;5.00;2.90;;;;;;;2.95;81.74;101530.81;4975124;28;20077;-88
2022/12/02 03:28:01;;;;;;;6.00;2.97;;;;;;;2.96;81.91;101527.22;4969075;28;20406;-86
2022/12/02 03:30:27;;;;;;;5.15;3.10;;;;;;;2.91;82.09;101514.19;4963731;28;20057;-87
2022/12/02 03:32:53;;;;;;;5.35;3.08;;;;;;;2.89;82.38;101521.41;4961449;28;20042;-86
2022/12/02 03:35:19;;;;;;;6.25;3.13;;;;;;;3.09;82.06;101548.56;5003188;28;20089;-87
2022/12/02 03:37:44;;;;;;;5.90;3.22;;;;;;;3.12;81.99;101561.69;4963282;28;20130;-86
2022/12/02 03:40:13;;;;;;;6.13;3.33;;;;;;;2.96;81.97;101532.53;5009353;28;20104;-86
2022/12/02 03:42:41;;;;;;;4.50;2.80;;;;;;;2.82;82.34;101533.31;4976170;28;20285;-86
2022/12/02 03:45:10;;;;;;;5.40;2.72;;;;;;;3.15;82.36;101559.69;4975130;28;20422;-87
2022/12/02 03:47:37;;;;;;;5.10;2.60;;;;;;;3.04;81.79;101534.72;4981649;28;20092;-86
2022/12/02 03:50:06;;;;;;;5.10;2.80;;;;;;;3.06;81.38;101536.34;4979061;28;20084;-87
2022/12/02 03:52:36;;;;;;;4.80;2.60;;;;;;;3.15;81.83;101535.78;4964758;28;20050;-87
2022/12/02 03:55:07;;;;;;;5.38;2.75;;;;;;;2.96;81.45;101508.63;4974004;28;20078;-87
2022/12/02 03:57:34;;;;;;;3.95;2.58;;;;;;;2.93;81.26;101528.25;4972813;28;20506;-88
2022/12/02 04:00:09;;;;;;;4.88;2.65;;;;;;;2.88;81.31;101513.50;4962577;28;20359;-87
2022/12/02 04:02:43;;;;;;;5.35;2.63;;;;;;;3.01;80.71;101541.06;4977596;28;20038;-88
2022/12/02 04:05:13;;;;;;;4.18;2.45;;;;;;;2.90;81.36;101533.75;4974967;28;20052;-86
2022/12/02 04:07:39;;;;;;;4.15;2.40;;;;;;;2.97;81.59;101552.81;4993264;28;20491;-87
2022/12/02 04:10:07;;;;;;;4.55;2.50;;;;;;;3.13;81.00;101540.34;4973966;28;20054;-88
2022/12/02 04:12:32;;;;;;;4.45;2.65;;;;;;;2.97;81.13;101528.91;4990541;28;20046;-88
2022/12/02 04:14:58;;;;;;;5.60;2.90;;;;;;;2.89;81.33;101528.50;4996766;28;20066;-90
2022/12/02 04:17:29;;;;;;;4.45;2.72;;;;;;;3.12;80.92;101549.25;4976202;28;20411;-89
2022/12/02 04:19:56;;;;;;;4.00;2.60;;;;;;;3.20;80.97;101555.91;4995674;28;20042;-89
2022/12/02 04:22:22;;;;;;;;;;;;;;;3.30;80.53;101562.38;4976094;28;20042;-86
2022/12/02 04:24:51;;;;;;;4.03;2.40;;;;;;;3.21;80.14;101536.38;4997693;28;20323;-88
2022/12/02 04:27:16;;;;;;;5.90;2.28;;;;;;;2.95;80.63;101536.13;4976170;28;20042;-87
2022/12/02 04:29:42;;;;;;;4.93;2.85;;;;;;;3.16;81.08;101572.06;4984740;28;20038;-87
2022/12/02 04:32:18;;;;;;;4.10;2.35;;;;;;;3.19;81.00;101564.84;4973493;28;20486;-88
2022/12/02 04:34:58;;;;;;;4.15;2.55;;;;;;;3.14;80.20;101578.41;4974672;28;20043;-87
2022/12/02 04:38:17;;;;;;;4.78;2.70;;;;;;;3.21;80.47;101589.50;4977893;28;20052;-86
2022/12/02 04:40:48;;;;;;;4.97;2.35;;;;;;;3.13;79.96;101572.22;4984222;28;20061;-87
2022/12/02 04:43:15;;;;;;;4.40;2.50;;;;;;;3.15;80.08;101574.81;4989085;28;20086;-87
2022/12/02 04:45:41;;;;;;;4.60;2.53;;;;;;;2.97;80.28;101566.09;4972866;28;20042;-86
2022/12/02 04:48:06;;;;;;;4.13;2.45;;;;;;;3.05;80.88;101585.13;4963823;28;20042;-86
2022/12/02 04:50:32;;;;;;;5.13;2.88;;;;;;;2.84;81.16;101563.31;4986823;28;20058;-87
2022/12/02 04:52:59;;;;;;;5.53;2.90;;;;;;;3.01;80.12;101566.78;4955567;28;20141;-89
2022/12/02 04:55:24;;;;;;;5.88;3.05;;;;;;;2.79;80.54;101552.09;4985907;28;20046;-87
2022/12/02 04:57:50;;;;;;;5.25;3.22;;;;;;;2.85;81.21;101575.63;4957086;28;20046;-86
2022/12/02 05:00:17;;;;;;;5.88;3.22;;;;;;;3.12;80.57;101589.13;4985121;28;20499;-87
2022/12/02 05:02:45;;;;;;;5.97;3.00;;;;;;;3.06;80.58;101570.88;4963017;28;20499;-88
2022/12/02 05:05:15;;;;;;;5.97;3.35;;;;;;;3.24;80.33;101599.97;4980105;28;20125;-88
2022/12/02 05:07:41;;;;;;;5.22;3.00;;;;;;;3.18;79.74;101574.59;4973370;28;20046;-87
2022/12/02 05:10:09;;;;;;;7.38;3.58;;;;;;;3.16;80.24;101577.38;4990387;28;20120;-89
2022/12/02 05:13:27;;;;;;;5.85;3.20;;;;;;;3.28;79.92;101593.56;4974080;28;20038;-87
2022/12/02 05:19:20;;;;;;;4.85;3.00;;;;;;;3.12;80.34;101589.13;4995341;28;20045;-96
2022/12/02 05:21:53;;;;;;;5.00;2.90;;;;;;;3.19;80.16;101599.41;4996722;28;20049;-87
2022/12/02 05:24:39;;;;;;;5.68;2.97;;;;;;;3.09;80.62;101602.59;4984294;28;20118;-87
2022/12/02 05:27:05;;;;;;;4.75;2.92;;;;;;;2.92;80.65;101589.41;4988214;28;20145;-88
2022/12/02 05:29:32;;;;;;;4.00;2.50;;;;;;;3.01;80.24;101602.16;4972048;28;20126;-87
2022/12/02 05:31:58;;;;;;;5.10;3.25;;;;;;;2.75;81.03;101571.81;4974661;28;20038;-86
2022/12/02 05:34:23;;;;;;;5.43;2.83;;;;;;;2.95;80.57;101605.22;4982874;28;20050;-88
2022/12/02 05:36:49;;;;;;;4.15;2.65;;;;;;;2.83;80.98;101582.84;4972762;28;20054;-88
2022/12/02 05:39:15;;;;;;;5.18;3.00;;;;;;;3.01;80.77;101612.81;4955758;28;20058;-86
2022/12/02 05:41:46;;;;;;;4.90;2.78;;;;;;;3.00;81.03;101615.53;4988313;28;20069;-86
2022/12/02 05:44:20;;;;;;;5.25;3.22;;;;;;;2.92;81.77;101618.63;4986691;28;20042;-87
2022/12/02 05:46:47;;;;;;;5.30;3.08;;;;;;;3.03;80.90;101633.97;4958047;28;20043;-88
2022/12/02 05:49:19;;;;;;;6.63;3.42;;;;;;;3.01;81.18;101623.44;4974466;28;20135;-85
2022/12/02 05:52:01;;;;;;;5.70;3.63;;;;;;;3.01;81.10;101636.72;4941720;28;20042;-86
2022/12/02 05:58:09;;;;;;;5.45;3.65;;;;;;;2.94;81.35;101614.09;4986614;28;20061;-84
2022/12/02 06:00:54;;;;;;;5.65;3.22;;;;;;;3.03;81.14;101640.13;4972519;28;20039;-86
2022/12/02 06:03:40;;;;;;;8.48;3.15;;;;;;;3.09;81.07;101654.84;4979341;28;20031;-91
2022/12/02 06:06:07;;;;;;;;;;;;;;;3.21;80.71;101653.28;4952017;29;20047;-85
2022/12/02 06:08:48;;;;;;;6.25;3.70;;;;;;;2.73;81.13;101605.56;4984316;28;19918;-89
2022/12/02 06:11:51;;;;;;;6.68;3.88;;;;;;;3.09;81.65;101661.06;4971128;28;20133;-87
2022/12/02 06:17:52;;;;;;;6.53;3.75;;;;;;;3.07;81.13;101643.50;4979958;28;20115;-90
2022/12/02 06:20:33;;;;;;;6.45;3.80;;;;;;;2.97;80.92;101629.84;4978682;28;20134;-90
2022/12/02 06:23:36;;;;;;;7.63;4.35;;;;;;;3.28;81.03;101657.34;4946839;28;20039;-88
2022/12/02 06:26:59;;;;;;;;;;;;;;;;;;;;;
2022/12/02 06:29:37;;;;;;;8.13;4.55;;;;;;;2.89;81.22;101632.09;4928515;29;20036;-89
2022/12/02 06:32:25;;;;;;;7.10;4.20;;;;;;;2.86;81.06;101616.34;4887438;29;20043;-89
2022/12/02 06:35:57;;;;;;;7.13;4.40;;;;;;;3.23;81.28;101670.00;4902130;29;20051;-92
2022/12/02 06:45:54;;;;;;;6.85;4.25;;;;;;;3.45;80.46;101680.25;4867165;29;20106;-93
2022/12/02 06:48:51;;;;;;;7.78;4.40;;;;;;;3.39;79.72;101657.53;4864357;29;20041;-90
2022/12/02 06:51:23;;;;;;;10.40;4.30;;;;;;;3.27;79.32;101640.50;4857067;29;20132;-87
2022/12/02 06:53:49;;;;;;;9.23;5.07;;;;;;;3.13;79.63;101657.25;4878762;29;20072;-88
2022/12/02 06:56:39;;;;;;;9.40;5.50;;;;;;;3.42;79.81;101683.09;4878104;29;20053;-91
2022/12/02 06:59:28;;;;;;;9.90;5.63;;;;;;;3.31;80.25;101665.97;4882186;29;20534;-90
2022/12/02 07:02:01;;;;;;;8.00;4.95;;;;;;;3.22;80.14;101639.06;4882195;29;20112;-89
2022/12/02 07:04:50;;;;;;;7.75;4.93;;;;;;;3.53;79.91;101686.81;4866926;29;20076;-86
2022/12/02 07:07:32;;;;;;;11.25;7.07;;;;;;;3.47;80.14;101657.97;4878294;29;20052;-87
2022/12/02 07:10:26;;;;;;;9.95;5.75;;;;;;;3.34;80.29;101665.78;4881923;29;20069;-89
2022/12/02 07:12:55;;;;;;;10.88;5.15;;;;;;;3.62;79.79;101679.25;4867412;29;20089;-87
2022/12/02 07:15:34;;;;;;;9.75;5.80;;;;;;;3.51;79.81;101686.09;4874054;29;20132;-87
2022/12/02 07:18:20;;;;;;;10.00;5.90;;;;;;;3.35;80.13;101666.66;4898551;29;20040;-91
2022/12/02 07:20:56;;;;;;;10.77;6.30;;;;;;;3.48;80.28;101693.38;4881430;29;20116;-89
2022/12/02 07:23:25;;;;;;;13.23;6.60;;;;;;;3.25;80.80;101681.41;4882242;29;20040;-90
2022/12/02 07:26:10;;;;;;;11.10;6.47;;;;;;;3.15;81.52;101675.78;4902578;29;20072;-90
2022/12/02 07:28:53;;;;;;;12.38;6.55;;;;;;;3.27;80.88;101687.50;4917195;29;20562;-90
2022/12/02 07:31:23;;;;;;;11.10;6.53;;;;;;;3.06;81.82;101682.47;4927325;28;20051;-90
2022/12/02 07:33:48;;;;;;;13.48;7.22;;;;;;;3.11;81.79;101685.75;4941289;28;20046;-90
2022/12/02 07:36:37;;;;;;;10.13;6.53;;;;;;;3.19;82.26;101677.31;4956475;28;20054;-93
2022/12/02 07:39:02;;;;;;;12.90;7.13;;;;;;;3.09;81.70;101676.13;4973465;28;20134;-89
2022/12/02 07:41:47;;;;;;;12.63;7.63;;;;;;;2.99;80.87;101659.84;4954401;28;20046;-90
2022/12/02 07:44:15;;;;;;;17.70;10.10;;;;;;;3.11;82.01;101674.22;4973997;28;20045;-89
2022/12/02 07:46:41;;;;;;;13.98;7.82;;;;;;;2.97;81.30;101672.34;4956659;28;20047;-90
2022/12/02 07:49:07;;;;;;;14.65;7.50;;;;;;;3.30;81.95;101730.72;4927193;28;20066;-90
2022/12/02 07:51:46;;;;;;;14.00;8.02;;;;;;;2.93;81.66;101669.03;4956863;28;20046;-91
2022/12/02 07:54:16;;;;;;;16.98;8.55;;;;;;;3.15;81.81;101692.56;4958005;28;20275;-90
2022/12/02 07:56:43;;;;;;;12.38;7.40;;;;;;;3.17;82.19;101697.81;4979204;28;20034;-92
2022/12/02 07:59:12;;;;;;;13.80;7.82;;;;;;;3.37;81.37;101705.50;5005187;28;20068;-89
2022/12/02 08:01:44;;;;;;;15.57;7.88;;;;;;;3.16;81.49;101674.81;4990235;28;20197;-89
2022/12/02 08:04:09;;;;;;;14.82;7.90;;;;;;;3.33;81.03;101684.50;4996092;28;20035;-89
2022/12/02 08:06:41;;;;;;;13.95;8.18;;;;;;;3.52;80.64;101706.41;4999331;28;20090;-89
2022/12/02 08:09:09;;;;;;;13.57;8.25;;;;;;;3.53;80.66;101710.75;4984106;28;20088;-89
2022/12/02 08:11:37;;;;;;;14.77;8.25;;;;;;;3.64;81.00;101719.94;4995337;28;20241;-91
2022/12/02 08:14:04;;;;;;;11.45;7.50;;;;;;;3.49;80.69;101690.63;4993498;28;20129;-90
2022/12/02 08:16:29;;;;;;;14.73;8.05;;;;;;;3.70;80.33;101722.22;4975735;28;20104;-86
2022/12/02 08:18:55;;;;;;;20.67;11.95;;;;;;;3.43;80.56;101685.66;4974127;28;20470;-88
2022/12/02 08:21:22;;;;;;;22.53;12.57;;;;;;;3.43;81.41;101709.59;4990196;28;20073;-88
2022/12/02 08:23:48;;;;;;;18.52;10.43;;;;;;;3.60;80.93;101729.88;4984835;28;21336;-85
2022/12/02 08:26:15;;;;;;;19.15;11.18;;;;;;;3.62;80.90;101708.53;4954626;28;20038;-90
2022/12/02 08:28:43;;;;;;;18.00;10.52;;;;;;;3.69;80.48;101708.06;4992717;28;20503;-90
2022/12/02 08:31:19;;;;;;;14.93;9.07;;;;;;;3.76;80.37;101727.16;4993437;28;20041;-87
2022/12/02 08:33:57;;;;;;;13.65;8.73;;;;;;;3.70;80.63;101719.53;4989629;28;20050;-88
2022/12/02 08:36:24;;;;;;;14.07;8.40;;;;;;;3.65;81.32;101729.59;4983688;28;20077;-87
2022/12/02 08:38:51;;;;;;;15.45;8.95;;;;;;;3.54;81.13;101712.50;4991594;28;20049;-87
2022/12/02 08:41:16;;;;;;;17.67;9.65;;;;;;;3.31;81.71;101691.69;4973657;28;20467;-88
2022/12/02 08:43:43;;;;;;;18.67;10.07;;;;;;;3.32;81.92;101719.97;4993489;28;20085;-87
2022/12/02 08:46:09;;;;;;;16.67;9.13;;;;;;;3.63;81.76;101732.38;4993539;28;20040;-92
2022/12/02 08:48:37;;;;;;;16.40;9.45;;;;;;;3.71;81.96;101731.91;4993336;28;20042;-87
2022/12/02 08:51:04;;;;;;;15.88;9.63;;;;;;;3.69;81.81;101717.84;5004074;28;20042;-87
2022/12/02 08:53:33;;;;;;;19.08;9.48;;;;;;;3.61;81.49;101704.16;4987618;28;20050;-88
2022/12/02 08:55:59;;;;;;;19.35;8.85;;;;;;;3.41;81.41;101679.56;4991609;28;20043;-93
2022/12/02 08:58:25;;;;;;;18.15;9.80;;;;;;;3.41;81.27;101690.22;4977337;28;20515;-88
2022/12/02 09:01:03;;;;;;;19.20;11.50;;;;;;;3.59;81.33;101709.56;4989258;28;20046;-90
2022/12/02 09:03:30;;;;;;;18.90;10.90;;;;;;;3.72;81.28;101717.66;4979476;28;20058;-88
2022/12/02 09:05:57;;;;;;;19.80;10.70;;;;;;;3.45;81.16;101683.78;5008245;28;20064;-87
2022/12/02 09:08:22;;;;;;;16.55;9.60;;;;;;;3.65;80.46;101695.03;4994527;28;20355;-87
2022/12/02 09:10:48;;;;;;;17.55;9.30;;;;;;;3.75;80.95;101726.31;4944692;28;20120;-86
2022/12/02 09:13:14;;;;;;;18.80;10.13;;;;;;;3.51;80.77;101683.44;4985457;28;20410;-87
2022/12/02 09:15:41;;;;;;;17.40;9.55;;;;;;;3.38;80.84;101666.47;4953968;28;20478;-87
2022/12/02 09:18:07;;;;;;;15.95;8.80;;;;;;;3.55;80.57;101689.41;4988421;28;20053;-88
2022/12/02 09:20:33;;;;;;;;;;;;;;;3.77;80.87;101715.59;4978560;28;20034;-87
2022/12/02 09:23:00;;;;;;;18.83;9.48;;;;;;;3.70;81.00;101722.22;5004321;28;19952;-88
2022/12/02 09:25:26;;;;;;;17.58;9.60;;;;;;;3.73;81.14;101714.91;4996315;28;20276;-87
2022/12/02 09:27:51;;;;;;;17.15;9.48;;;;;;;3.78;80.68;101718.16;4989359;28;20046;-88
2022/12/02 09:30:18;;;;;;;17.83;9.63;;;;;;;3.95;80.28;101714.47;4999164;28;20046;-89
2022/12/02 09:32:57;;;;;;;17.65;9.60;;;;;;;3.85;80.38;101691.19;4984895;28;20047;-94
2022/12/02 09:35:25;;;;;;;17.27;9.40;;;;;;;3.76;80.35;101677.47;4991327;28;20035;-86
2022/12/02 09:37:52;;;;;;;17.05;9.85;;;;;;;4.04;80.28;101713.06;4992990;28;20144;-88
2022/12/02 09:40:39;;;;;;;19.17;10.65;;;;;;;4.14;79.47;101708.03;4991701;28;20046;-89
2022/12/02 09:43:28;;;;;;;18.65;9.35;;;;;;;4.21;79.69;101712.03;4999710;28;20042;-88
2022/12/02 09:45:55;;;;;;;18.75;9.95;;;;;;;3.97;79.37;101680.66;5008281;28;20023;-88
2022/12/02 09:48:22;;;;;;;17.77;9.88;;;;;;;4.07;79.42;101690.75;4980911;28;20050;-88
2022/12/02 09:50:49;;;;;;;16.42;9.20;;;;;;;4.05;79.07;101672.22;5000709;28;20050;-93
2022/12/02 09:53:15;;;;;;;17.73;9.65;;;;;;;4.12;79.18;101696.63;4945922;28;20058;-89
2022/12/02 09:55:47;;;;;;;19.67;10.00;;;;;;;3.94;79.62;101675.53;4986774;28;20030;-89
2022/12/02 09:58:17;;;;;;;17.58;10.32;;;;;;;3.97;79.69;101672.66;5007451;28;20038;-87
2022/12/02 10:00:44;;;;;;;20.98;11.05;;;;;;;4.02;79.89;101672.38;4979282;28;20050;-87
2022/12/02 10:03:15;;;;;;;16.38;9.75;;;;;;;4.30;79.38;101711.47;5021117;28;20045;-89
2022/12/02 10:05:41;;;;;;;16.70;8.82;;;;;;;3.90;79.07;101668.66;5001924;28;20160;-88
2022/12/02 10:08:11;;;;;;;19.33;10.32;;;;;;;4.18;79.43;101698.94;5001750;28;20046;-88
2022/12/02 10:10:41;;;;;;;18.23;9.88;;;;;;;4.03;79.19;101668.78;4986056;28;20050;-86
2022/12/02 10:13:15;;;;;;;21.35;11.32;;;;;;;4.03;79.06;101682.09;4965906;28;20050;-90
2022/12/02 10:15:41;;;;;;;19.33;10.02;;;;;;;4.02;79.52;101699.00;4977508;28;20066;-86
2022/12/02 10:18:27;;;;;;;19.48;9.90;;;;;;;3.87;79.75;101691.97;4961991;28;20436;-89
2022/12/02 10:20:53;;;;;;;19.35;9.85;;;;;;;3.94;79.92;101702.13;5011014;28;20042;-90
2022/12/02 10:23:21;;;;;;;19.52;9.82;;;;;;;3.81;80.46;101691.34;4982607;28;20141;-87
2022/12/02 10:25:57;;;;;;;19.02;10.25;;;;;;;3.68;80.11;101647.00;4972832;28;20046;-87
2022/12/02 10:28:33;;;;;;;20.95;10.57;;;;;;;3.87;80.25;101679.50;4984951;28;20049;-89
2022/12/02 10:31:30;;;;;;;21.15;9.63;;;;;;;4.04;79.75;101698.91;4991162;28;20140;-89
2022/12/02 10:33:58;;;;;;;16.70;8.82;;;;;;;3.62;80.26;101650.84;5002540;28;20056;-88
2022/12/02 10:36:41;;;;;;;20.40;10.10;;;;;;;3.83;80.34;101671.81;4982434;28;20044;-87
2022/12/02 10:39:32;;;;;;;18.98;10.05;;;;;;;3.86;79.94;101676.94;4992440;28;20129;-84
2022/12/02 10:42:03;;;;;;;19.73;8.98;;;;;;;3.92;80.34;101689.88;4989061;28;20046;-85
2022/12/02 10:44:32;;;;;;;18.98;9.30;;;;;;;4.09;79.92;101679.03;5002879;28;20042;-84
2022/12/02 10:47:19;;;;;;;18.38;9.88;;;;;;;4.29;79.18;101687.63;4995106;28;20058;-83
2022/12/02 10:49:49;;;;;;;16.55;8.50;;;;;;;4.29;78.32;101691.13;4997374;28;20062;-84
2022/12/02 10:52:14;;;;;;;15.85;8.68;;;;;;;4.19;78.64;101689.97;5002438;28;20340;-83
2022/12/02 10:54:45;;;;;;;17.60;9.00;;;;;;;4.10;79.14;101671.94;4954908;28;20074;-84
2022/12/02 10:57:28;;;;;;;17.17;8.75;;;;;;;4.06;78.75;101670.41;4989609;28;20391;-84
2022/12/02 10:59:56;;;;;;;17.60;8.90;;;;;;;4.15;78.24;101657.38;4962366;28;20042;-86
2022/12/02 11:02:39;;;;;;;24.90;9.60;;;;;;;4.42;77.61;101680.56;5003804;28;20034;-85
2022/12/02 11:05:30;;;;;;;14.35;8.70;;;;;;;4.48;77.74;101697.97;4990245;28;20070;-84
2022/12/02 11:08:04;;;;;;;16.55;9.43;;;;;;;4.31;78.41;101667.94;4983109;28;20030;-85
2022/12/02 11:10:37;;;;;;;17.75;9.45;;;;;;;4.33;77.55;101676.69;4984207;28;20078;-84
2022/12/02 11:13:09;;;;;;;20.85;9.35;;;;;;;4.48;77.62;101684.66;4988898;28;20066;-83
2022/12/02 11:15:48;;;;;;;17.63;8.27;;;;;;;4.56;76.55;101687.69;4987208;28;20049;-84
2022/12/02 11:18:29;;;;;;;17.98;8.93;;;;;;;4.78;76.42;101706.69;4964997;28;20049;-84
2022/12/02 11:21:15;;;;;;;20.73;9.15;;;;;;;4.48;76.61;101690.00;4997941;28;20126;-84
2022/12/02 11:23:40;;;;;;;;;;;;;;;4.72;76.75;101701.75;4991048;28;20121;-83
2022/12/02 11:26:11;;;;;;;19.98;9.27;;;;;;;4.43;76.69;101674.31;4990214;28;19974;-84
2022/12/02 11:28:45;;;;;;;19.10;8.93;;;;;;;4.65;76.26;101708.41;4978105;28;20491;-88
2022/12/02 11:31:14;;;;;;;20.23;9.43;;;;;;;4.61;76.26;101709.56;4984032;28;20080;-85
2022/12/02 11:33:42;;;;;;;21.85;9.02;;;;;;;4.57;76.69;101700.06;5020243;28;20061;-85
2022/12/02 11:36:08;;;;;;;19.83;8.82;;;;;;;4.67;76.66;101711.84;5009708;28;20046;-85
2022/12/02 11:38:52;;;;;;;18.88;8.82;;;;;;;4.69;76.23;101706.44;5018712;28;20068;-86
2022/12/02 11:41:49;;;;;;;19.77;9.00;;;;;;;4.74;75.90;101707.00;4992573;28;20034;-85
2022/12/02 11:44:22;;;;;;;17.75;9.07;;;;;;;4.75;75.90;101687.38;4978224;28;20491;-82
2022/12/02 11:46:49;;;;;;;21.73;9.85;;;;;;;4.84;76.37;101706.28;4999914;28;20360;-87
2022/12/02 11:49:20;;;;;;;16.05;8.57;;;;;;;4.83;75.18;101685.94;5002696;28;20069;-85
2022/12/02 11:51:47;;;;;;;18.02;9.60;;;;;;;4.61;76.06;101696.25;4981638;28;20141;-85
2022/12/02 11:54:18;;;;;;;17.08;9.55;;;;;;;4.72;76.05;101703.56;4970821;28;20035;-85
2022/12/02 11:56:45;;;;;;;25.00;9.80;;;;;;;4.57;76.46;101684.09;4974212;28;20062;-86
2022/12/02 11:59:26;;;;;;;20.02;9.57;;;;;;;4.93;75.81;101706.66;4992482;28;20136;-85
2022/12/02 12:02:15;;;;;;;20.73;9.73;;;;;;;4.90;75.17;101686.41;4975668;28;20038;-84
2022/12/02 12:04:43;;;;;;;24.65;9.70;;;;;;;4.69;74.92;101667.31;4981825;28;20156;-84
2022/12/02 12:07:11;;;;;;;26.83;11.00;;;;;;;4.88;75.75;101698.97;4956627;28;20178;-85
2022/12/02 12:09:39;;;;;;;21.08;9.45;;;;;;;4.76;75.91;101708.59;4958121;28;20515;-87
2022/12/02 12:12:17;;;;;;;19.42;8.93;;;;;;;4.71;75.45;101702.72;4983956;28;20499;-83
2022/12/02 12:15:17;;;;;;;21.20;10.18;;;;;;;4.65;75.82;101687.09;4960906;28;20127;-85
2022/12/02 12:17:47;;;;;;;20.52;9.18;;;;;;;4.65;76.28;101705.75;4972909;28;20038;-85